CFS7284 KLBB-KAFW
Flight info
| Callsign | CFS7284 |
|---|---|
| Flight time | N/A |
| Altitude | 19000 |
| Route | DCT CDS DCT SPS MOTZA1 |
| Aircraft | AT73/M-SDFGIRY/S |
Departure
| Time | 2026-04-20 21:47 |
|---|---|
| Airport | Lubbock Preston Smith International Airport (KLBB) |
Arrival
| Time | N/A |
|---|---|
| Airport | Perot Field/Fort Worth Alliance Airport (KAFW) |
| Time | Latitude | Longitude | Altitude | Speed | Heading |
|---|---|---|---|---|---|
| 2026-04-20 21:31 | 33.67245 | -101.83329 | 3263 ft | 0 kts | 360° |
| 2026-04-20 21:37 | 33.67293 | -101.83329 | 3263 ft | 7 kts | 0° |
| 2026-04-20 21:37 | 33.67306 | -101.83308 | 3263 ft | 6 kts | 79° |
| 2026-04-20 21:37 | 33.67345 | -101.83272 | 3264 ft | 9 kts | 358° |
| 2026-04-20 21:38 | 33.67398 | -101.83229 | 3263 ft | 11 kts | 83° |
| 2026-04-20 21:38 | 33.67399 | -101.83131 | 3263 ft | 12 kts | 90° |
| 2026-04-20 21:38 | 33.67399 | -101.83020 | 3260 ft | 15 kts | 90° |
| 2026-04-20 21:38 | 33.67400 | -101.82893 | 3258 ft | 14 kts | 89° |
| 2026-04-20 21:39 | 33.67400 | -101.82780 | 3259 ft | 12 kts | 90° |
| 2026-04-20 21:39 | 33.67442 | -101.82702 | 3260 ft | 15 kts | 8° |
| 2026-04-20 21:39 | 33.67585 | -101.82703 | 3259 ft | 24 kts | 359° |
| 2026-04-20 21:39 | 33.67755 | -101.82704 | 3263 ft | 21 kts | 359° |
| 2026-04-20 21:40 | 33.67917 | -101.82705 | 3264 ft | 23 kts | 360° |
| 2026-04-20 21:40 | 33.68054 | -101.82706 | 3266 ft | 16 kts | 359° |
| 2026-04-20 21:40 | 33.68132 | -101.82757 | 3266 ft | 13 kts | 274° |
| 2026-04-20 21:40 | 33.68131 | -101.82806 | 3268 ft | 2 kts | 269° |
| 2026-04-20 21:45 | 33.68131 | -101.82811 | 3267 ft | 3 kts | 269° |
| 2026-04-20 21:45 | 33.68123 | -101.82867 | 3265 ft | 9 kts | 245° |
| 2026-04-20 21:46 | 33.68088 | -101.82897 | 3267 ft | 3 kts | 197° |
| 2026-04-20 21:46 | 33.68000 | -101.82902 | 3266 ft | 34 kts | 179° |
| 2026-04-20 21:46 | 33.67492 | -101.82901 | 3261 ft | 105 kts | 179° |
| 2026-04-20 21:46 | 33.66739 | -101.82870 | 3812 ft | 103 kts | 175° |
| 2026-04-20 21:47 | 33.65989 | -101.82802 | 4341 ft | 118 kts | 173° |
| 2026-04-20 21:47 | 33.65090 | -101.82654 | 4678 ft | 136 kts | 165° |
| 2026-04-20 21:47 | 33.64162 | -101.82230 | 4899 ft | 157 kts | 158° |
| 2026-04-20 21:47 | 33.63357 | -101.81426 | 5415 ft | 164 kts | 121° |
| 2026-04-20 21:48 | 33.63157 | -101.79893 | 5266 ft | 209 kts | 89° |
| 2026-04-20 21:48 | 33.63687 | -101.78235 | 5482 ft | 222 kts | 57° |
| 2026-04-20 21:48 | 33.64867 | -101.77096 | 5751 ft | 203 kts | 37° |
| 2026-04-20 21:48 | 33.65932 | -101.76226 | 6112 ft | 171 kts | 39° |
| 2026-04-20 21:49 | 33.66866 | -101.75365 | 6445 ft | 173 kts | 41° |
| 2026-04-20 21:49 | 33.67804 | -101.74419 | 6798 ft | 178 kts | 43° |
| 2026-04-20 21:49 | 33.68733 | -101.73361 | 7077 ft | 195 kts | 47° |
| 2026-04-20 21:49 | 33.69673 | -101.72091 | 7349 ft | 210 kts | 53° |
| 2026-04-20 21:50 | 33.70523 | -101.70670 | 7681 ft | 214 kts | 59° |
| 2026-04-20 21:50 | 33.71296 | -101.69127 | 8040 ft | 216 kts | 62° |
| 2026-04-20 21:50 | 33.72034 | -101.67539 | 8413 ft | 219 kts | 63° |
| 2026-04-20 21:50 | 33.72776 | -101.65938 | 8803 ft | 219 kts | 62° |
| 2026-04-20 21:51 | 33.73521 | -101.64331 | 9183 ft | 225 kts | 63° |
| 2026-04-20 21:51 | 33.74299 | -101.62671 | 9605 ft | 228 kts | 62° |
| 2026-04-20 21:51 | 33.75081 | -101.60987 | 10018 ft | 233 kts | 62° |
| 2026-04-20 21:51 | 33.75885 | -101.59287 | 10447 ft | 236 kts | 62° |
| 2026-04-20 21:52 | 33.76700 | -101.57569 | 10893 ft | 236 kts | 61° |
| 2026-04-20 21:52 | 33.77519 | -101.55848 | 11349 ft | 237 kts | 62° |
| 2026-04-20 21:52 | 33.78341 | -101.54131 | 11801 ft | 237 kts | 61° |
| 2026-04-20 21:52 | 33.79156 | -101.52412 | 12279 ft | 236 kts | 60° |
| 2026-04-20 21:53 | 33.79971 | -101.50713 | 12780 ft | 234 kts | 60° |
| 2026-04-20 21:53 | 33.80779 | -101.49021 | 13278 ft | 233 kts | 60° |
| 2026-04-20 21:53 | 33.81573 | -101.47336 | 13773 ft | 231 kts | 60° |
| 2026-04-20 21:53 | 33.82365 | -101.45663 | 14223 ft | 229 kts | 60° |
| 2026-04-20 21:54 | 33.83157 | -101.43998 | 14621 ft | 229 kts | 60° |
| 2026-04-20 21:54 | 33.83949 | -101.42327 | 15017 ft | 230 kts | 60° |
| 2026-04-20 21:54 | 33.84744 | -101.40646 | 15419 ft | 232 kts | 60° |
| 2026-04-20 21:54 | 33.85541 | -101.38963 | 15808 ft | 232 kts | 60° |
| 2026-04-20 21:55 | 33.86349 | -101.37263 | 16173 ft | 235 kts | 60° |
| 2026-04-20 21:55 | 33.87158 | -101.35550 | 16544 ft | 236 kts | 60° |
| 2026-04-20 21:55 | 33.87964 | -101.33854 | 16916 ft | 237 kts | 60° |
| 2026-04-20 21:55 | 33.88783 | -101.32120 | 17290 ft | 238 kts | 60° |
| 2026-04-20 21:56 | 33.89602 | -101.30389 | 17683 ft | 238 kts | 60° |
| 2026-04-20 21:56 | 33.90422 | -101.28647 | 18047 ft | 240 kts | 60° |
| 2026-04-20 21:56 | 33.91246 | -101.26900 | 18417 ft | 240 kts | 60° |
| 2026-04-20 21:56 | 33.92077 | -101.25148 | 18688 ft | 243 kts | 60° |
| 2026-04-20 21:57 | 33.92935 | -101.23323 | 18772 ft | 254 kts | 60° |
| 2026-04-20 21:57 | 33.93821 | -101.21442 | 18872 ft | 262 kts | 60° |
| 2026-04-20 21:57 | 33.94733 | -101.19505 | 18918 ft | 270 kts | 60° |
| 2026-04-20 21:57 | 33.95675 | -101.17509 | 18936 ft | 277 kts | 60° |
| 2026-04-20 21:58 | 33.96633 | -101.15470 | 18951 ft | 282 kts | 60° |
| 2026-04-20 21:58 | 33.97594 | -101.13426 | 18955 ft | 286 kts | 60° |
| 2026-04-20 21:58 | 33.98599 | -101.11298 | 18956 ft | 294 kts | 60° |
| 2026-04-20 21:58 | 33.99619 | -101.09134 | 18962 ft | 307 kts | 60° |
| 2026-04-20 21:59 | 34.00682 | -101.06862 | 18959 ft | 316 kts | 60° |
| 2026-04-20 21:59 | 34.01774 | -101.04536 | 18959 ft | 322 kts | 60° |
| 2026-04-20 21:59 | 34.02881 | -101.02173 | 18961 ft | 326 kts | 60° |
| 2026-04-20 21:59 | 34.04002 | -100.99780 | 18963 ft | 329 kts | 60° |
| 2026-04-20 22:00 | 34.05129 | -100.97373 | 18962 ft | 331 kts | 60° |
| 2026-04-20 22:00 | 34.06265 | -100.94950 | 18961 ft | 332 kts | 60° |
| 2026-04-20 22:00 | 34.07402 | -100.92515 | 18961 ft | 333 kts | 60° |
| 2026-04-20 22:00 | 34.08541 | -100.90079 | 18963 ft | 334 kts | 60° |
| 2026-04-20 22:01 | 34.09678 | -100.87641 | 18959 ft | 334 kts | 60° |
| 2026-04-20 22:01 | 34.10821 | -100.85201 | 18965 ft | 334 kts | 60° |
| 2026-04-20 22:01 | 34.11959 | -100.82755 | 18964 ft | 334 kts | 60° |
| 2026-04-20 22:01 | 34.13100 | -100.80312 | 18965 ft | 334 kts | 60° |
| 2026-04-20 22:02 | 34.14237 | -100.77868 | 18964 ft | 334 kts | 60° |
| 2026-04-20 22:02 | 34.15375 | -100.75422 | 18966 ft | 334 kts | 60° |
| 2026-04-20 22:02 | 34.16512 | -100.72977 | 18959 ft | 334 kts | 60° |
| 2026-04-20 22:02 | 34.17653 | -100.70523 | 18965 ft | 334 kts | 60° |
| 2026-04-20 22:03 | 34.18791 | -100.68075 | 18964 ft | 334 kts | 60° |
| 2026-04-20 22:03 | 34.19926 | -100.65625 | 18963 ft | 334 kts | 60° |
| 2026-04-20 22:03 | 34.21050 | -100.63204 | 18964 ft | 334 kts | 60° |
| 2026-04-20 22:03 | 34.22186 | -100.60751 | 18965 ft | 334 kts | 60° |
| 2026-04-20 22:04 | 34.23323 | -100.58299 | 18966 ft | 335 kts | 60° |
| 2026-04-20 22:04 | 34.24459 | -100.55846 | 18963 ft | 334 kts | 60° |
| 2026-04-20 22:04 | 34.25592 | -100.53396 | 18966 ft | 334 kts | 60° |
| 2026-04-20 22:04 | 34.26728 | -100.50945 | 18967 ft | 334 kts | 60° |
| 2026-04-20 22:05 | 34.27860 | -100.48486 | 18968 ft | 334 kts | 60° |
| 2026-04-20 22:05 | 34.28993 | -100.46032 | 18962 ft | 334 kts | 60° |
| 2026-04-20 22:05 | 34.30126 | -100.43579 | 18962 ft | 334 kts | 60° |
| 2026-04-20 22:05 | 34.31260 | -100.41125 | 18963 ft | 334 kts | 60° |
| 2026-04-20 22:06 | 34.32388 | -100.38670 | 18963 ft | 334 kts | 60° |
| 2026-04-20 22:06 | 34.33519 | -100.36215 | 18963 ft | 334 kts | 60° |
| 2026-04-20 22:06 | 34.34647 | -100.33757 | 18962 ft | 334 kts | 60° |
| 2026-04-20 22:06 | 34.35769 | -100.31302 | 18963 ft | 331 kts | 62° |
| 2026-04-20 22:07 | 34.36385 | -100.28643 | 18979 ft | 330 kts | 86° |
| 2026-04-20 22:07 | 34.36336 | -100.25868 | 18981 ft | 329 kts | 98° |
| 2026-04-20 22:07 | 34.35824 | -100.23177 | 18982 ft | 329 kts | 109° |
| 2026-04-20 22:07 | 34.35148 | -100.20524 | 18981 ft | 330 kts | 110° |
| 2026-04-20 22:08 | 34.34474 | -100.17864 | 18979 ft | 332 kts | 108° |
| 2026-04-20 22:08 | 34.33865 | -100.15195 | 18976 ft | 332 kts | 107° |
| 2026-04-20 22:08 | 34.33288 | -100.12494 | 18973 ft | 331 kts | 105° |
| 2026-04-20 22:08 | 34.32714 | -100.09800 | 18971 ft | 332 kts | 106° |
| 2026-04-20 22:09 | 34.32141 | -100.07095 | 18967 ft | 333 kts | 106° |
| 2026-04-20 22:09 | 34.31569 | -100.04381 | 18970 ft | 333 kts | 107° |
| 2026-04-20 22:09 | 34.30978 | -100.01682 | 18970 ft | 332 kts | 107° |
| 2026-04-20 22:09 | 34.30374 | -99.98993 | 18970 ft | 331 kts | 107° |
| 2026-04-20 22:10 | 34.29766 | -99.96305 | 18967 ft | 331 kts | 108° |
| 2026-04-20 22:10 | 34.29167 | -99.93625 | 18966 ft | 330 kts | 108° |
| 2026-04-20 22:10 | 34.28579 | -99.90934 | 18962 ft | 332 kts | 108° |
| 2026-04-20 22:10 | 34.27981 | -99.88241 | 18960 ft | 331 kts | 108° |
| 2026-04-20 22:11 | 34.27387 | -99.85555 | 18962 ft | 330 kts | 107° |
| 2026-04-20 22:11 | 34.26788 | -99.82879 | 18959 ft | 330 kts | 108° |
| 2026-04-20 22:11 | 34.26187 | -99.80211 | 19053 ft | 327 kts | 108° |
| 2026-04-20 22:11 | 34.25593 | -99.77557 | 19118 ft | 327 kts | 108° |
| 2026-04-20 22:12 | 34.25206 | -99.75802 | 19149 ft | 327 kts | 107° |
| 2026-04-20 22:12 | 34.24614 | -99.73141 | 19168 ft | 328 kts | 107° |
| 2026-04-20 22:12 | 34.24021 | -99.70481 | 19188 ft | 328 kts | 107° |
| 2026-04-20 22:12 | 34.23247 | -99.66939 | 19194 ft | 329 kts | 106° |
| 2026-04-20 22:13 | 34.22852 | -99.65134 | 19194 ft | 330 kts | 107° |
| 2026-04-20 22:13 | 34.22080 | -99.61565 | 19198 ft | 332 kts | 106° |
| 2026-04-20 22:13 | 34.21678 | -99.59750 | 19198 ft | 332 kts | 107° |
| 2026-04-20 22:13 | 34.21073 | -99.57056 | 19196 ft | 331 kts | 107° |
| 2026-04-20 22:14 | 34.20463 | -99.54380 | 19197 ft | 331 kts | 107° |
| 2026-04-20 22:14 | 34.19853 | -99.51713 | 19200 ft | 331 kts | 107° |
| 2026-04-20 22:14 | 34.19242 | -99.49003 | 19201 ft | 333 kts | 108° |
| 2026-04-20 22:14 | 34.18632 | -99.46314 | 19203 ft | 333 kts | 107° |
| 2026-04-20 22:15 | 34.18028 | -99.43667 | 19199 ft | 333 kts | 107° |
| 2026-04-20 22:15 | 34.17405 | -99.40944 | 19200 ft | 333 kts | 106° |
| 2026-04-20 22:15 | 34.16805 | -99.38275 | 19206 ft | 333 kts | 107° |
| 2026-04-20 22:15 | 34.16194 | -99.35579 | 19204 ft | 334 kts | 107° |
| 2026-04-20 22:16 | 34.15579 | -99.32868 | 19204 ft | 334 kts | 107° |
| 2026-04-20 22:16 | 34.14966 | -99.30158 | 19205 ft | 334 kts | 107° |
| 2026-04-20 22:16 | 34.14352 | -99.27453 | 19205 ft | 333 kts | 107° |
| 2026-04-20 22:16 | 34.13749 | -99.24756 | 19205 ft | 334 kts | 106° |
| 2026-04-20 22:17 | 34.13148 | -99.22051 | 19204 ft | 334 kts | 107° |
| 2026-04-20 22:17 | 34.12550 | -99.19340 | 19203 ft | 334 kts | 107° |
| 2026-04-20 22:17 | 34.11947 | -99.16634 | 19204 ft | 333 kts | 107° |
| 2026-04-20 22:17 | 34.11335 | -99.13945 | 19204 ft | 332 kts | 107° |
| 2026-04-20 22:18 | 34.10720 | -99.11254 | 19204 ft | 332 kts | 107° |
| 2026-04-20 22:18 | 34.10108 | -99.08573 | 19205 ft | 332 kts | 107° |
| 2026-04-20 22:18 | 34.09477 | -99.05889 | 19205 ft | 333 kts | 107° |
| 2026-04-20 22:18 | 34.08846 | -99.03199 | 19210 ft | 333 kts | 107° |
| 2026-04-20 22:19 | 34.08213 | -99.00508 | 19210 ft | 333 kts | 107° |
| 2026-04-20 22:19 | 34.07594 | -98.97817 | 19210 ft | 333 kts | 107° |
| 2026-04-20 22:19 | 34.06974 | -98.95124 | 19210 ft | 333 kts | 107° |
| 2026-04-20 22:19 | 34.06356 | -98.92433 | 19216 ft | 333 kts | 107° |
| 2026-04-20 22:20 | 34.05737 | -98.89738 | 19219 ft | 334 kts | 107° |
| 2026-04-20 22:20 | 34.05114 | -98.87036 | 19221 ft | 333 kts | 107° |
| 2026-04-20 22:20 | 34.04491 | -98.84345 | 19227 ft | 333 kts | 107° |
| 2026-04-20 22:20 | 34.03876 | -98.81658 | 19228 ft | 333 kts | 106° |
| 2026-04-20 22:21 | 34.03251 | -98.78960 | 19230 ft | 333 kts | 107° |
| 2026-04-20 22:21 | 34.02633 | -98.76306 | 19232 ft | 334 kts | 107° |
| 2026-04-20 22:21 | 34.02003 | -98.73575 | 19233 ft | 334 kts | 107° |
| 2026-04-20 22:21 | 34.01384 | -98.70908 | 19227 ft | 334 kts | 107° |
| 2026-04-20 22:22 | 34.00760 | -98.68207 | 19226 ft | 334 kts | 106° |
| 2026-04-20 22:22 | 34.00135 | -98.65518 | 19227 ft | 334 kts | 106° |
| 2026-04-20 22:22 | 33.99507 | -98.62827 | 19228 ft | 334 kts | 106° |
| 2026-04-20 22:22 | 33.98871 | -98.60130 | 19229 ft | 332 kts | 107° |
| 2026-04-20 22:23 | 33.97903 | -98.57625 | 19228 ft | 330 kts | 123° |
| 2026-04-20 22:23 | 33.96565 | -98.55363 | 19230 ft | 331 kts | 129° |
| 2026-04-20 22:23 | 33.95161 | -98.53161 | 19230 ft | 332 kts | 129° |
| 2026-04-20 22:23 | 33.93788 | -98.50933 | 19228 ft | 332 kts | 127° |
| 2026-04-20 22:24 | 33.92480 | -98.48649 | 19229 ft | 331 kts | 126° |
| 2026-04-20 22:24 | 33.91187 | -98.46354 | 19246 ft | 331 kts | 127° |
| 2026-04-20 22:24 | 33.89890 | -98.44065 | 19247 ft | 330 kts | 127° |
| 2026-04-20 22:24 | 33.88576 | -98.41796 | 19247 ft | 330 kts | 127° |
| 2026-04-20 22:25 | 33.87262 | -98.39534 | 19242 ft | 330 kts | 127° |
| 2026-04-20 22:25 | 33.85960 | -98.37298 | 19243 ft | 330 kts | 127° |
| 2026-04-20 22:25 | 33.84644 | -98.35036 | 19244 ft | 330 kts | 127° |
| 2026-04-20 22:25 | 33.83316 | -98.32776 | 19246 ft | 331 kts | 127° |
| 2026-04-20 22:26 | 33.81977 | -98.30519 | 19245 ft | 331 kts | 127° |
| 2026-04-20 22:26 | 33.80638 | -98.28263 | 19246 ft | 332 kts | 127° |
| 2026-04-20 22:26 | 33.79309 | -98.25995 | 19246 ft | 331 kts | 127° |
| 2026-04-20 22:27 | 33.76656 | -98.21458 | 19248 ft | 332 kts | 127° |
| 2026-04-20 22:27 | 33.75331 | -98.19190 | 19249 ft | 331 kts | 127° |
| 2026-04-20 22:27 | 33.74004 | -98.16924 | 19249 ft | 332 kts | 126° |
| 2026-04-20 22:27 | 33.72677 | -98.14656 | 19249 ft | 332 kts | 127° |
| 2026-04-20 22:28 | 33.71345 | -98.12381 | 19246 ft | 332 kts | 127° |
| 2026-04-20 22:28 | 33.70020 | -98.10121 | 19247 ft | 332 kts | 127° |
| 2026-04-20 22:28 | 33.68691 | -98.07853 | 19243 ft | 332 kts | 127° |
| 2026-04-20 22:28 | 33.67370 | -98.05582 | 19244 ft | 332 kts | 127° |
| 2026-04-20 22:29 | 33.66053 | -98.03307 | 19251 ft | 331 kts | 127° |
| 2026-04-20 22:29 | 33.64731 | -98.01040 | 19250 ft | 331 kts | 127° |
| 2026-04-20 22:29 | 33.63406 | -97.98786 | 19253 ft | 331 kts | 128° |
| 2026-04-20 22:29 | 33.62085 | -97.96554 | 19249 ft | 331 kts | 127° |
| 2026-04-20 22:30 | 33.60743 | -97.94312 | 19252 ft | 331 kts | 127° |
| 2026-04-20 22:30 | 33.59411 | -97.92063 | 19253 ft | 330 kts | 127° |
| 2026-04-20 22:30 | 33.58084 | -97.89815 | 19250 ft | 330 kts | 127° |
| 2026-04-20 22:30 | 33.56760 | -97.87570 | 19257 ft | 330 kts | 127° |
| 2026-04-20 22:31 | 33.55433 | -97.85327 | 19255 ft | 330 kts | 127° |
| 2026-04-20 22:31 | 33.53984 | -97.83245 | 19250 ft | 323 kts | 143° |
| 2026-04-20 22:31 | 33.52092 | -97.81829 | 19258 ft | 320 kts | 154° |
| 2026-04-20 22:31 | 33.50050 | -97.80807 | 19256 ft | 318 kts | 165° |
| 2026-04-20 22:32 | 33.47899 | -97.80138 | 19260 ft | 319 kts | 170° |
| 2026-04-20 22:32 | 33.45732 | -97.79546 | 19258 ft | 320 kts | 170° |
| 2026-04-20 22:32 | 33.43568 | -97.78914 | 19255 ft | 320 kts | 169° |
| 2026-04-20 22:32 | 33.41424 | -97.78202 | 19254 ft | 319 kts | 169° |
| 2026-04-20 22:33 | 33.39290 | -97.77504 | 19256 ft | 318 kts | 169° |
| 2026-04-20 22:33 | 33.37155 | -97.76808 | 19261 ft | 317 kts | 169° |
| 2026-04-20 22:33 | 33.35029 | -97.76118 | 19261 ft | 317 kts | 169° |
| 2026-04-20 22:33 | 33.32901 | -97.75426 | 19262 ft | 317 kts | 169° |
| 2026-04-20 22:34 | 33.30776 | -97.74732 | 19262 ft | 317 kts | 169° |
| 2026-04-20 22:34 | 33.28649 | -97.74047 | 19271 ft | 317 kts | 169° |
| 2026-04-20 22:34 | 33.26535 | -97.73309 | 19269 ft | 317 kts | 162° |
| 2026-04-20 22:34 | 33.24658 | -97.71881 | 19259 ft | 321 kts | 146° |
| 2026-04-20 22:35 | 33.22893 | -97.70192 | 19095 ft | 328 kts | 144° |
| 2026-04-20 22:35 | 33.21149 | -97.68471 | 18936 ft | 332 kts | 144° |
| 2026-04-20 22:35 | 33.19348 | -97.66696 | 18778 ft | 335 kts | 144° |
| 2026-04-20 22:35 | 33.17544 | -97.64921 | 18619 ft | 337 kts | 144° |
| 2026-04-20 22:36 | 33.15727 | -97.63134 | 18444 ft | 338 kts | 144° |